Time;durP1;ratioP1;P1;durP2;ratioP2;P2;SDS_P1;SDS_P2;PMS_P1;PMS_P2;Temp;Humidity;BMP_temperature;BMP_pressure;BME280_temperature;BME280_humidity;BME280_pressure;Samples;Min_cycle;Max_cycle;Signal;HPM_P1;HPM_P2
2021/11/01 00:02:02;;;;;;;6.75;3.95;;;;;;;10.30;87.83;98829.22;8660247;33;20169;-76
2021/11/01 00:07:07;;;;;;;11.68;3.50;;;;;;;10.18;87.64;98862.72;8659755;33;20172;-77
2021/11/01 00:12:10;;;;;;;9.77;4.40;;;;;;;10.14;88.12;98880.13;8659859;33;20279;-77
2021/11/01 00:17:13;;;;;;;11.25;3.90;;;;;;;10.33;87.80;98828.06;8659056;33;20529;-77
2021/11/01 00:22:18;;;;;;;10.52;4.38;;;;;;;10.33;87.57;98836.97;8659875;33;20242;-77
2021/11/01 00:27:21;;;;;;;8.20;4.53;;;;;;;10.03;87.52;98816.00;8659081;33;20227;-77
2021/11/01 00:32:24;;;;;;;6.95;3.25;;;;;;;10.06;87.02;98827.25;8692567;33;20183;-77
2021/11/01 00:37:29;;;;;;;7.78;3.00;;;;;;;10.11;86.79;98832.16;8691737;33;20226;-77
2021/11/01 00:42:35;;;;;;;9.02;3.78;;;;;;;10.12;86.86;98836.50;8717006;33;20216;-76
2021/11/01 00:47:38;;;;;;;6.85;2.53;;;;;;;10.09;86.69;98850.25;8716889;33;20180;-77
2021/11/01 00:52:42;;;;;;;8.23;3.00;;;;;;;10.00;86.51;98841.31;8716623;33;20717;-77
2021/11/01 00:57:46;;;;;;;7.22;2.92;;;;;;;10.01;86.65;98844.81;8716031;33;20211;-77
2021/11/01 01:02:49;;;;;;;7.75;3.05;;;;;;;10.10;86.30;98838.53;8691133;33;20173;-77
2021/11/01 01:07:54;;;;;;;8.05;2.60;;;;;;;10.09;86.20;98834.16;8715755;33;20217;-77
2021/11/01 01:12:57;;;;;;;8.95;2.92;;;;;;;10.06;86.17;98818.38;8715902;33;20140;-77
2021/11/01 01:18:06;;;;;;;7.10;3.95;;;;;;;9.86;85.70;98829.31;8715831;33;20183;-77
2021/11/01 01:23:11;;;;;;;8.27;2.97;;;;;;;9.75;85.56;98842.97;8656244;33;20295;-77
2021/11/01 01:28:15;;;;;;;6.97;2.60;;;;;;;9.75;85.54;98828.72;8658103;33;20165;-77
2021/11/01 01:33:19;;;;;;;11.05;2.63;;;;;;;9.70;85.61;98830.00;8656241;33;20291;-77
2021/11/01 01:38:23;;;;;;;11.73;2.83;;;;;;;9.65;85.11;98834.16;8659193;33;20281;-77
2021/11/01 01:43:26;;;;;;;9.88;2.78;;;;;;;9.63;84.38;98818.25;8657560;33;20188;-76
2021/11/01 01:48:29;;;;;;;7.03;2.55;;;;;;;9.50;84.49;98815.97;8657790;33;21905;-77
2021/11/01 01:53:34;;;;;;;8.90;2.70;;;;;;;9.47;84.65;98813.59;8661837;33;21038;-76
2021/11/01 01:58:45;;;;;;;10.27;3.15;;;;;;;9.40;84.86;98803.66;8656953;33;20216;-76
2021/11/01 02:03:53;;;;;;;12.50;3.70;;;;;;;9.39;84.91;98805.50;8634420;33;20148;-76
2021/11/01 02:09:04;;;;;;;6.20;3.50;;;;;;;9.34;84.71;98804.28;8657160;33;20157;-76
2021/11/01 02:14:12;;;;;;;8.32;3.42;;;;;;;9.33;84.71;98807.97;8656379;33;20234;-76
2021/11/01 02:19:19;;;;;;;11.18;3.63;;;;;;;9.18;84.69;98804.97;8657602;33;20433;-76
2021/11/01 02:24:37;;;;;;;8.00;3.25;;;;;;;9.39;83.99;98810.03;8657235;33;20777;-76
2021/11/01 02:29:45;;;;;;;7.38;2.78;;;;;;;9.40;83.82;98800.97;8657460;33;20195;-76
2021/11/01 02:34:49;;;;;;;11.07;3.33;;;;;;;9.31;83.79;98800.06;8660305;33;20218;-76
2021/11/01 02:39:55;;;;;;;11.65;3.35;;;;;;;9.33;83.86;98808.81;8661657;33;22119;-76
2021/11/01 02:45:04;;;;;;;10.00;3.85;;;;;;;9.25;84.08;98806.88;8694462;33;20688;-76
2021/11/01 02:50:14;;;;;;;8.90;2.53;;;;;;;9.26;84.08;98807.72;8718615;33;20176;-76
2021/11/01 02:55:19;;;;;;;9.25;2.70;;;;;;;9.28;83.88;98816.47;8718594;33;20652;-75
2021/11/01 03:00:26;;;;;;;12.48;3.05;;;;;;;9.25;83.32;98820.28;8718251;33;20857;-76
2021/11/01 03:05:29;;;;;;;6.55;2.55;;;;;;;9.28;82.65;98824.50;8718960;33;20213;-75
2021/11/01 03:10:33;;;;;;;6.63;2.60;;;;;;;9.28;82.78;98830.69;8718831;33;20632;-77
2021/11/01 03:15:38;;;;;;;3.97;2.90;;;;;;;9.26;82.99;98831.84;8717928;33;20148;-77
2021/11/01 03:20:45;;;;;;;9.32;3.22;;;;;;;9.23;82.95;98818.75;8718649;33;20179;-76
2021/11/01 03:25:56;;;;;;;10.25;3.00;;;;;;;9.20;82.69;98825.25;8718574;33;20318;-76
2021/11/01 03:31:06;;;;;;;10.23;2.95;;;;;;;9.16;82.20;98845.31;8718641;33;20244;-77
2021/11/01 03:36:12;;;;;;;7.85;2.92;;;;;;;9.12;82.20;98835.06;8718038;33;20249;-76
2021/11/01 03:41:16;;;;;;;15.82;4.60;;;;;;;9.09;81.70;98827.34;8717542;33;20520;-77
2021/11/01 03:46:27;;;;;;;5.75;2.60;;;;;;;9.18;81.32;98826.41;8718069;33;20144;-77
2021/11/01 03:51:41;;;;;;;8.25;3.13;;;;;;;9.17;81.67;98836.28;8721660;33;20214;-76
2021/11/01 03:56:50;;;;;;;11.38;3.38;;;;;;;9.17;81.57;98833.59;8692543;33;20629;-76
2021/11/01 04:01:56;;;;;;;6.93;2.83;;;;;;;9.14;81.95;98836.59;8718146;33;20242;-77
2021/11/01 04:07:00;;;;;;;7.93;2.75;;;;;;;9.17;82.21;98835.44;8718381;33;20183;-75
2021/11/01 04:12:03;;;;;;;8.93;2.53;;;;;;;9.13;82.03;98831.38;8693528;33;20183;-76
2021/11/01 04:17:11;;;;;;;11.30;3.00;;;;;;;9.09;82.22;98838.03;8718102;33;20132;-76
2021/11/01 04:22:15;;;;;;;10.68;2.85;;;;;;;9.04;81.87;98842.00;8722321;33;20740;-78
2021/11/01 04:27:19;;;;;;;11.15;3.28;;;;;;;9.05;81.76;98827.63;8698774;33;20187;-78
2021/11/01 04:32:29;;;;;;;6.93;2.97;;;;;;;8.95;81.38;98826.84;8730413;33;20552;-77
2021/11/01 04:37:32;;;;;;;9.15;2.65;;;;;;;9.00;81.74;98821.06;8748394;33;21180;-78
2021/11/01 04:53:17;;;;;;;4.35;2.45;;;;;;;8.93;79.48;98839.56;8723136;33;20818;-78
2021/11/01 04:58:21;;;;;;;9.95;3.60;;;;;;;9.00;79.59;98834.44;8722194;33;20140;-78
2021/11/01 05:03:36;;;;;;;8.48;3.15;;;;;;;8.97;79.49;98827.56;8722344;33;20275;-78
2021/11/01 05:08:44;;;;;;;7.55;2.30;;;;;;;9.03;79.60;98829.63;8697280;33;20585;-78
2021/11/01 05:13:47;;;;;;;11.13;2.60;;;;;;;8.91;78.83;98817.44;8720426;33;20151;-78
2021/11/01 05:19:03;;;;;;;10.88;2.53;;;;;;;9.05;78.41;98819.59;8719216;33;20221;-78
2021/11/01 05:24:11;;;;;;;8.43;2.05;;;;;;;8.93;78.26;98812.78;8719621;33;20148;-78
2021/11/01 05:29:14;;;;;;;7.63;2.47;;;;;;;8.84;77.73;98805.66;8695149;33;20140;-78
2021/11/01 05:34:19;;;;;;;10.48;4.70;;;;;;;8.92;77.55;98819.13;8720376;33;22122;-77
2021/11/01 05:39:22;;;;;;;11.88;3.10;;;;;;;8.96;77.59;98812.47;8694892;33;20694;-77
2021/11/01 05:44:25;;;;;;;9.70;2.22;;;;;;;8.84;77.17;98816.38;8736444;33;20187;-77
2021/11/01 05:49:30;;;;;;;5.35;2.10;;;;;;;8.89;77.53;98821.28;8725231;33;21545;-77
2021/11/01 05:54:33;;;;;;;6.93;2.03;;;;;;;8.82;77.87;98826.38;8730187;33;20501;-78
2021/11/01 06:05:04;;;;;;;8.02;2.30;;;;;;;8.68;76.47;98843.81;8746431;33;20411;-78
2021/11/01 06:10:11;;;;;;;4.55;1.90;;;;;;;8.81;77.25;98849.63;8726268;33;21451;-77
2021/11/01 06:15:15;;;;;;;7.45;2.08;;;;;;;8.79;76.76;98848.94;8701462;33;21993;-78
2021/11/01 06:20:19;;;;;;;7.78;2.45;;;;;;;8.72;76.40;98847.88;8722307;33;20369;-79
2021/11/01 06:25:24;;;;;;;9.13;2.28;;;;;;;8.72;76.88;98855.91;8697457;33;20216;-78
2021/11/01 06:30:30;;;;;;;4.75;2.10;;;;;;;8.71;76.63;98862.22;8721993;33;20180;-78
2021/11/01 06:41:16;;;;;;;5.53;2.42;;;;;;;8.74;76.29;98858.41;8728384;33;20152;-78
2021/11/01 06:51:56;;;;;;;10.55;2.05;;;;;;;8.84;76.53;98870.75;8661092;33;20152;-78
2021/11/01 06:57:16;;;;;;;5.97;2.22;;;;;;;8.82;76.21;98874.56;8723006;33;20286;-79
2021/11/01 07:18:28;;;;;;;3.10;1.52;;;;;;;9.03;75.81;98899.25;8696279;33;20187;-78
2021/11/01 08:49:52;;;;;;;7.32;2.92;;;;;;;11.42;64.75;98932.06;8669795;33;20195;-77
2021/11/01 09:06:27;;;;;;;2.50;1.40;;;;;;;11.78;61.92;98937.97;8584168;33;20192;-76
2021/11/01 09:22:31;;;;;;;2.38;1.50;;;;;;;12.23;59.50;98942.03;8658151;33;20194;-76
2021/11/01 09:27:35;;;;;;;1.63;1.33;;;;;;;10.98;62.16;98948.38;8633701;33;20218;-75
2021/11/01 09:38:16;;;;;;;5.47;1.70;;;;;;;10.87;62.71;98940.59;8657219;33;20779;-76
2021/11/01 09:43:19;;;;;;;6.13;1.70;;;;;;;10.51;63.52;98949.63;8656292;33;20184;-76
2021/11/01 09:48:25;;;;;;;3.80;1.67;;;;;;;10.43;63.72;98933.50;8743552;32;20515;-76
2021/11/01 09:53:37;;;;;;;5.60;1.25;;;;;;;10.34;63.73;98927.22;8715231;33;20172;-75
2021/11/01 10:04:03;;;;;;;2.53;1.30;;;;;;;10.27;64.05;98946.81;8701255;33;20628;-77
2021/11/01 10:09:12;;;;;;;4.40;1.77;;;;;;;10.69;64.12;98943.34;8715802;33;20617;-75
2021/11/01 10:14:17;;;;;;;7.82;2.00;;;;;;;11.31;61.81;98937.75;8689756;33;20445;-76
2021/11/01 10:19:31;;;;;;;5.55;1.70;;;;;;;11.55;61.47;98935.13;8714598;33;20844;-76
2021/11/01 10:24:39;;;;;;;5.43;1.50;;;;;;;11.84;59.97;98921.16;8714835;33;20212;-75
2021/11/01 10:29:55;;;;;;;4.32;1.58;;;;;;;12.32;59.07;98932.13;8715075;33;20226;-76
2021/11/01 10:35:22;;;;;;;4.13;1.58;;;;;;;11.39;60.25;98927.84;8715443;33;20683;-75
2021/11/01 10:40:27;;;;;;;5.88;2.45;;;;;;;11.33;60.17;98933.91;8713984;33;20890;-75
2021/11/01 10:45:47;;;;;;;2.42;1.52;;;;;;;11.60;59.39;98930.09;8678249;33;21161;-75
2021/11/01 11:12:34;;;;;;;2.80;1.40;;;;;;;13.09;55.71;98904.56;8715844;33;20142;-75
2021/11/01 11:17:45;;;;;;;2.40;1.27;;;;;;;14.80;50.70;98886.06;8716947;33;20265;-74
2021/11/01 11:28:44;;;;;;;2.58;1.10;;;;;;;13.54;51.99;98925.38;8698551;33;21040;-77
2021/11/01 11:37:13;;;;;;;4.32;1.35;;;;;;;14.28;49.07;98916.69;8672510;33;20211;-76
2021/11/01 11:39:39;;;;;;;1.45;1.27;;;;;;;14.74;48.89;98913.84;8690146;33;20149;-76
2021/11/01 11:50:16;;;;;;;5.03;1.38;;;;;;;15.74;45.04;98886.09;8657116;33;20573;-75
2021/11/01 11:55:25;;;;;;;3.78;1.17;;;;;;;15.20;46.00;98894.69;8658174;33;20265;-75
2021/11/01 12:00:36;;;;;;;2.15;1.05;;;;;;;15.56;45.71;98896.56;8658402;33;20188;-75
2021/11/01 12:05:45;;;;;;;5.38;1.50;;;;;;;14.54;47.57;98891.97;8658742;33;20182;-74
2021/11/01 12:21:52;;;;;;;2.00;1.35;;;;;;;14.87;47.53;98883.47;8690663;33;20195;-75
2021/11/01 12:27:04;;;;;;;4.57;1.58;;;;;;;13.06;50.90;98897.69;8705589;33;20195;-77
2021/11/01 12:32:12;;;;;;;4.13;1.50;;;;;;;12.65;50.71;98892.47;8718728;33;20148;-74
2021/11/01 12:37:19;;;;;;;2.78;1.45;;;;;;;12.88;50.82;98880.91;8716760;33;20241;-76
2021/11/01 12:58:38;;;;;;;1.80;1.38;;;;;;;12.49;52.32;98879.88;8693181;33;20190;-75
2021/11/01 13:03:52;;;;;;;2.42;1.50;;;;;;;12.47;52.06;98864.91;8716408;33;20282;-75
2021/11/01 13:08:59;;;;;;;3.15;1.58;;;;;;;12.35;51.76;98867.97;8716728;33;20187;-76
2021/11/01 13:14:29;;;;;;;1.77;1.40;;;;;;;13.32;48.80;98862.28;8715653;33;20237;-76
2021/11/01 13:19:34;;;;;;;1.50;1.40;;;;;;;13.38;48.42;98868.84;8657608;33;20148;-74
2021/11/01 13:24:46;;;;;;;3.15;1.20;;;;;;;13.13;47.56;98873.53;8657418;33;20185;-74
2021/11/01 13:35:17;;;;;;;2.97;1.40;;;;;;;13.32;47.87;98872.25;8657208;33;20198;-75
2021/11/01 13:40:20;;;;;;;2.70;1.27;;;;;;;13.49;48.77;98863.03;8643738;33;20245;-75
2021/11/01 13:45:25;;;;;;;3.20;1.40;;;;;;;13.94;47.60;98861.31;8713531;33;20179;-75
2021/11/01 13:50:38;;;;;;;4.90;1.30;;;;;;;13.37;48.52;98868.03;8715589;33;20211;-75
2021/11/01 13:55:48;;;;;;;1.85;1.33;;;;;;;12.42;49.71;98865.44;8690200;33;20652;-75
2021/11/01 14:01:08;;;;;;;3.25;1.20;;;;;;;12.12;51.07;98865.16;8714966;33;20179;-75
2021/11/01 14:11:52;;;;;;;4.47;2.25;;;;;;;12.09;50.38;98878.09;8483365;34;20326;-75
2021/11/01 14:17:05;;;;;;;2.00;1.00;;;;;;;12.15;50.82;98875.56;8665069;33;20223;-75
2021/11/01 15:21:29;;;;;;;2.63;1.30;;;;;;;11.84;51.72;98875.44;8669163;33;20732;-75
2021/11/01 15:26:53;;;;;;;3.92;1.75;;;;;;;11.70;51.51;98879.63;8721222;33;21054;-75
2021/11/01 15:37:33;;;;;;;1.48;1.30;;;;;;;11.51;51.50;98888.03;8716325;33;20153;-75
2021/11/01 16:20:16;;;;;;;3.10;1.67;;;;;;;11.21;53.05;98919.06;8692996;33;21645;-75
2021/11/01 16:25:20;;;;;;;7.07;2.45;;;;;;;11.18;53.32;98930.16;8717466;33;20240;-76
2021/11/01 16:30:27;;;;;;;7.28;3.60;;;;;;;11.12;53.50;98920.03;8718253;33;20188;-75
2021/11/01 16:35:35;;;;;;;4.53;3.35;;;;;;;11.11;53.73;98929.06;8680927;33;20188;-76
2021/11/01 16:40:42;;;;;;;8.65;4.00;;;;;;;11.03;53.89;98929.91;8694833;33;20296;-76
2021/11/01 16:45:48;;;;;;;6.80;3.08;;;;;;;10.84;54.37;98931.84;8675247;33;20249;-76
2021/11/01 16:50:54;;;;;;;3.63;2.95;;;;;;;10.81;54.63;98926.81;8722531;33;20185;-77
2021/11/01 16:56:12;;;;;;;8.18;3.30;;;;;;;10.71;55.16;98928.75;8692824;33;20424;-77
2021/11/01 17:01:21;;;;;;;7.45;4.30;;;;;;;10.57;55.48;98930.22;8710541;33;20590;-77
2021/11/01 17:06:33;;;;;;;6.47;3.45;;;;;;;10.50;55.92;98928.31;8696029;33;20172;-77
2021/11/01 17:22:28;;;;;;;7.88;5.10;;;;;;;10.29;56.88;98937.59;8752764;33;20465;-76
2021/11/01 17:27:57;;;;;;;7.97;5.20;;;;;;;10.32;56.79;98923.84;8730717;33;20594;-75
2021/11/01 18:43:35;;;;;;;5.13;3.53;;;;;;;10.30;57.75;98958.06;8692013;33;20206;-75
2021/11/01 18:54:13;;;;;;;5.95;3.92;;;;;;;10.13;58.52;98954.41;8646128;33;20740;-75
2021/11/01 18:59:18;;;;;;;8.77;3.97;;;;;;;10.15;58.37;98962.31;8711258;33;20205;-76
2021/11/01 19:04:25;;;;;;;5.53;3.85;;;;;;;10.14;58.35;98957.94;8712530;33;20192;-76
2021/11/01 19:09:42;;;;;;;5.55;2.78;;;;;;;10.13;58.22;98953.59;8714271;33;20196;-75
2021/11/01 20:03:35;;;;;;;3.30;1.85;;;;;;;10.07;58.90;98967.63;8743527;33;20968;-78
2021/11/01 20:09:19;;;;;;;3.05;1.65;;;;;;;10.08;58.62;98964.78;8682079;33;20489;-76
2021/11/01 20:14:34;;;;;;;2.13;1.73;;;;;;;10.03;59.05;98967.06;8718233;33;20206;-76
2021/11/01 21:24:47;;;;;;;2.42;1.73;;;;;;;8.94;64.69;98977.84;8717126;33;20440;-76
2021/11/01 21:29:51;;;;;;;3.38;1.77;;;;;;;8.89;65.10;98977.44;8737192;33;20200;-76
2021/11/01 21:34:58;;;;;;;3.35;1.90;;;;;;;8.77;65.55;98970.56;8714120;33;20187;-76
2021/11/01 21:40:02;;;;;;;4.60;1.73;;;;;;;8.52;66.40;98970.22;8714496;33;20190;-76
2021/11/01 21:45:08;;;;;;;4.05;2.17;;;;;;;8.45;66.84;98963.75;8714380;33;20190;-76
2021/11/01 21:50:15;;;;;;;3.80;2.30;;;;;;;8.47;66.81;98967.13;8700488;33;20211;-76
2021/11/01 21:55:37;;;;;;;3.50;1.77;;;;;;;8.35;67.17;98969.09;8690280;33;20599;-76
2021/11/01 22:01:04;;;;;;;6.15;2.20;;;;;;;8.42;66.87;98957.81;8715486;33;20152;-76
2021/11/01 22:17:04;;;;;;;2.75;2.33;;;;;;;8.31;67.06;98948.13;8692289;33;20212;-76
2021/11/01 22:22:27;;;;;;;5.63;2.13;;;;;;;8.25;67.21;98941.53;8715458;33;20684;-76
2021/11/01 22:33:10;;;;;;;2.65;2.20;;;;;;;8.18;67.17;98948.47;8713825;33;20261;-76
2021/11/01 22:38:21;;;;;;;6.82;2.75;;;;;;;8.14;67.15;98939.88;8714920;33;20187;-75
2021/11/01 22:43:51;;;;;;;7.97;2.80;;;;;;;8.07;67.40;98956.66;8714370;33;20387;-76
2021/11/01 22:55:32;;;;;;;5.60;2.30;;;;;;;7.98;67.67;98947.66;8716646;33;20282;-76
2021/11/01 22:59:39;;;;;;;3.80;2.10;;;;;;;7.93;67.64;98952.59;8694360;33;21631;-75
2021/11/01 23:04:47;;;;;;;5.43;2.55;;;;;;;7.92;67.52;98948.22;8718037;33;20148;-75
2021/11/01 23:31:29;;;;;;;3.67;1.98;;;;;;;7.90;68.05;98937.66;8718653;33;21472;-75
2021/11/01 23:36:36;;;;;;;4.93;2.08;;;;;;;7.91;67.84;98936.66;8719278;33;20171;-77
2021/11/01 23:41:43;;;;;;;3.00;1.75;;;;;;;7.84;68.18;98942.72;8722060;33;20672;-76
2021/11/01 23:46:48;;;;;;;2.35;1.83;;;;;;;7.80;68.31;98938.66;8718341;33;20144;-76
2021/11/01 23:52:07;;;;;;;3.42;2.08;;;;;;;7.75;68.88;98933.72;8692743;33;20229;-76
2021/11/01 23:57:14;;;;;;;5.15;2.38;;;;;;;7.75;68.68;98927.56;8691707;33;20191;-76
